URKK

Pashkovsky Airport

Airport
ICAO code
URKK
Summary
ICAO Region
EUR
ICAO Territory
Location

Krasnodar Krai,

Coordinates
45° 2' 5" N , 39° 10' 14" E
KCC
Cfa
Metar
Observation
URKK 091900Z 07005MPS CAVOK 27/11 Q1010 R05R/CLRD70 NOSIG RMK QFE754
Station
Krasnodar
Date/Time
2022-08-09 19:00:00
Wind direction
70°
Lowest cloud amount
clouds and visibility OK
Temperature
27°C
Dew point
11°C
Humidity
36%
QNH
1010 hPa
Weather condition
n/a

Description

Also known as Pashkovsky Airport, this airport serves the souther Russian city of Krasnodar.

Climatology

Humid “subtropical” climate (Köppen climate classification Cfa) - characterized by hot, humid summers and cool winters. Significant amounts of precipitation occur in all seasons in most areas.

Runways

Designator Length Width Surface Rops
05L/23R 2200 49 ASP Yes/Yes
05R/23L 2998 44 CON Yes/Yes

Airport map

Aerial View

SKYbrary Partners:

Safety knowledge contributed by: